Time;durP1;ratioP1;P1;durP2;ratioP2;P2;SDS_P1;SDS_P2;PMS_P1;PMS_P2;Temp;Humidity;BMP_temperature;BMP_pressure;BME280_temperature;BME280_humidity;BME280_pressure;Samples;Min_cycle;Max_cycle;Signal;HPM_P1;HPM_P2
2023/12/14 00:02:25;;;;;;;0.20;0.20;;;;;;;8.26;73.60;101094.56;5096780;28;20039;-83
2023/12/14 00:04:51;;;;;;;1.48;1.05;;;;;;;8.33;73.52;101105.94;5096930;28;20111;-83
2023/12/14 00:07:17;;;;;;;0.20;0.20;;;;;;;8.32;73.33;101111.25;5099206;28;20480;-83
2023/12/14 00:09:43;;;;;;;0.80;0.80;;;;;;;8.30;73.59;101113.91;5088832;28;20036;-82
2023/12/14 00:12:10;;;;;;;0.20;0.20;;;;;;;8.35;73.09;101121.78;5093893;28;20025;-82
2023/12/14 00:14:36;;;;;;;0.20;0.20;;;;;;;8.39;73.50;101127.03;5091905;28;20032;-81
2023/12/14 00:17:02;;;;;;;0.30;0.30;;;;;;;8.33;73.25;101132.34;5094456;28;20030;-81
2023/12/14 00:19:28;;;;;;;0.20;0.20;;;;;;;8.31;73.31;101141.16;5093493;28;20537;-82
2023/12/14 00:21:55;;;;;;;0.75;0.28;;;;;;;8.35;73.16;101141.16;5094997;28;20024;-82
2023/12/14 00:24:21;;;;;;;0.20;0.20;;;;;;;8.36;73.28;101149.94;5095549;28;20047;-82
2023/12/14 00:26:47;;;;;;;0.85;0.65;;;;;;;8.31;72.73;101149.97;5090680;28;20091;-82
2023/12/14 00:29:13;;;;;;;0.20;0.20;;;;;;;8.33;72.49;101155.25;5093335;28;20049;-83
2023/12/14 00:31:40;;;;;;;0.35;0.35;;;;;;;8.45;73.08;101159.56;5092077;28;20559;-83
2023/12/14 00:34:06;;;;;;;0.20;0.20;;;;;;;8.47;72.98;101160.47;5096608;28;20035;-83
2023/12/14 00:36:35;;;;;;;0.45;0.45;;;;;;;8.47;72.95;101163.09;5098200;28;20061;-83
2023/12/14 00:39:01;;;;;;;0.20;0.20;;;;;;;8.45;72.63;101171.00;5108317;28;20023;-82
2023/12/14 00:41:28;;;;;;;1.67;1.60;;;;;;;8.42;72.50;101181.59;5111341;28;20028;-83
2023/12/14 00:43:54;;;;;;;0.20;0.20;;;;;;;8.39;72.81;101187.75;5103076;28;20379;-83
2023/12/14 00:46:20;;;;;;;0.45;0.45;;;;;;;8.33;72.75;101200.13;5098903;28;20027;-82
2023/12/14 00:48:46;;;;;;;0.22;0.22;;;;;;;8.35;72.40;101196.59;5100628;28;20035;-84
2023/12/14 00:51:12;;;;;;;0.20;0.20;;;;;;;8.31;72.33;101197.50;5109470;28;20024;-81
2023/12/14 00:53:38;;;;;;;0.43;0.43;;;;;;;8.41;72.89;101195.66;5105009;28;20028;-81
2023/12/14 00:56:07;;;;;;;0.55;0.55;;;;;;;8.36;72.57;101198.34;5100824;28;20023;-82
2023/12/14 00:58:34;;;;;;;0.20;0.20;;;;;;;8.42;72.67;101213.25;5099505;28;20036;-81
2023/12/14 01:01:00;;;;;;;0.20;0.20;;;;;;;8.41;72.24;101208.88;5098917;28;20020;-83
2023/12/14 01:03:26;;;;;;;0.20;0.20;;;;;;;8.36;72.07;101208.91;5099785;28;20032;-84
2023/12/14 01:05:52;;;;;;;0.15;0.15;;;;;;;8.39;72.10;101219.44;5100135;28;20039;-84
2023/12/14 01:08:18;;;;;;;1.08;1.05;;;;;;;8.38;72.67;101220.31;5097142;28;20486;-84
2023/12/14 01:10:45;;;;;;;0.20;0.20;;;;;;;8.34;72.48;101225.66;5098957;28;20390;-84
2023/12/14 01:13:11;;;;;;;0.47;0.47;;;;;;;8.24;72.55;101240.66;5098109;28;20042;-84
2023/12/14 01:15:37;;;;;;;0.20;0.20;;;;;;;8.22;72.39;101237.13;5099148;28;20024;-84
2023/12/14 01:18:03;;;;;;;0.57;0.57;;;;;;;8.26;72.40;101247.69;5096899;28;20024;-84
2023/12/14 01:20:30;;;;;;;0.55;0.55;;;;;;;8.36;72.62;101243.22;5096563;28;20419;-84
2023/12/14 01:22:56;;;;;;;0.45;0.45;;;;;;;8.30;72.42;101243.25;5097775;28;20042;-82
2023/12/14 01:25:22;;;;;;;0.20;0.20;;;;;;;8.29;72.01;101249.41;5098703;28;20028;-82
2023/12/14 01:27:48;;;;;;;1.77;1.67;;;;;;;8.35;72.42;101249.41;5099576;28;20036;-82
2023/12/14 01:30:14;;;;;;;0.10;0.10;;;;;;;8.35;72.18;101249.41;5100743;28;20032;-83
2023/12/14 01:32:40;;;;;;;0.20;0.20;;;;;;;8.29;72.18;101259.09;5099384;28;20024;-83
2023/12/14 01:35:07;;;;;;;0.20;0.20;;;;;;;8.19;71.78;101263.53;5100625;28;20081;-82
2023/12/14 01:37:33;;;;;;;1.90;1.83;;;;;;;8.21;72.23;101267.03;5098034;28;20024;-83
2023/12/14 01:39:59;;;;;;;0.20;0.20;;;;;;;8.24;72.23;101269.69;5098363;28;20023;-82
2023/12/14 01:49:18;;;;;;;0.40;0.40;;;;;;;8.21;72.01;101290.78;5097975;28;20089;-83
2023/12/14 01:51:44;;;;;;;0.20;0.20;;;;;;;8.25;71.96;101298.72;5098139;28;20056;-83
2023/12/14 01:54:10;;;;;;;0.95;0.95;;;;;;;8.24;71.95;101294.31;5101353;28;20418;-83
2023/12/14 01:56:36;;;;;;;0.10;0.10;;;;;;;8.24;71.94;101310.16;5099976;28;20038;-83
2023/12/14 01:59:03;;;;;;;0.20;0.20;;;;;;;8.25;72.25;101322.47;5097582;28;20036;-84
2023/12/14 02:04:06;;;;;;;0.60;0.60;;;;;;;8.28;72.41;101339.19;5104174;27;1187017;-83
2023/12/14 02:06:32;;;;;;;0.73;0.73;;;;;;;8.23;71.97;101334.78;5116899;27;20024;-84
2023/12/14 02:08:58;;;;;;;0.20;0.20;;;;;;;8.24;71.56;101346.25;5116243;28;20062;-83
2023/12/14 02:11:25;;;;;;;0.10;0.10;;;;;;;8.31;72.07;101342.72;5118578;28;20038;-84
2023/12/14 02:13:51;;;;;;;0.20;0.20;;;;;;;8.34;72.28;101350.59;5117008;28;20476;-84
2023/12/14 02:16:17;;;;;;;0.20;0.20;;;;;;;8.21;72.01;101346.22;5112920;28;20032;-83
2023/12/14 02:18:45;;;;;;;0.20;0.20;;;;;;;8.31;71.88;101353.28;5112180;28;20054;-83
2023/12/14 02:21:11;;;;;;;0.40;0.40;;;;;;;8.28;72.08;101350.63;5104326;28;20038;-84
2023/12/14 02:23:45;;;;;;;0.20;0.20;;;;;;;8.37;71.69;101358.53;5107881;28;20158;-84
2023/12/14 02:26:12;;;;;;;1.55;0.90;;;;;;;8.30;71.90;101362.06;5110702;28;20074;-83
2023/12/14 02:28:38;;;;;;;0.20;0.20;;;;;;;8.28;71.50;101366.47;5104767;27;20032;-83
2023/12/14 03:41:59;;;;;;;0.20;0.20;;;;;;;8.26;71.38;101428.94;5087351;28;20043;-84
2023/12/14 03:44:25;;;;;;;0.20;0.20;;;;;;;8.27;70.97;101435.97;5093561;28;20024;-83
2023/12/14 03:46:53;;;;;;;0.10;0.10;;;;;;;8.16;70.67;101438.66;5092808;28;20036;-84
2023/12/14 03:49:20;;;;;;;0.38;0.38;;;;;;;8.26;71.03;101444.78;5085730;28;20110;-83
2023/12/14 03:51:46;;;;;;;0.93;0.93;;;;;;;8.22;70.93;101440.38;5090313;28;20035;-84
2023/12/14 03:54:12;;;;;;;0.10;0.10;;;;;;;8.22;70.65;101450.94;5098535;28;20038;-83
2023/12/14 03:56:38;;;;;;;0.30;0.30;;;;;;;8.18;70.43;101447.41;5091957;28;20028;-83
2023/12/14 03:59:04;;;;;;;0.10;0.10;;;;;;;8.26;70.92;101457.97;5097243;28;20029;-84
2023/12/14 04:01:30;;;;;;;0.20;0.20;;;;;;;8.24;70.38;101457.97;5090023;28;20049;-84
2023/12/14 04:03:57;;;;;;;0.20;0.20;;;;;;;8.30;70.35;101458.84;5097263;28;20036;-84
2023/12/14 04:06:23;;;;;;;0.82;0.82;;;;;;;8.30;70.69;101461.50;5097105;28;20028;-84
2023/12/14 04:08:49;;;;;;;0.47;0.47;;;;;;;8.31;70.68;101472.09;5090099;28;20102;-84
2023/12/14 04:11:15;;;;;;;0.50;0.50;;;;;;;8.33;70.23;101466.78;5106029;28;20024;-84
2023/12/14 04:13:41;;;;;;;0.40;0.40;;;;;;;8.26;70.64;101477.34;5094041;28;20028;-85
2023/12/14 04:16:08;;;;;;;0.28;0.28;;;;;;;8.26;70.24;101481.72;5100101;28;20119;-84
2023/12/14 04:18:34;;;;;;;0.20;0.20;;;;;;;8.25;70.41;101480.00;5092580;27;20029;-83
2023/12/14 04:21:00;;;;;;;0.17;0.17;;;;;;;8.26;69.97;101494.94;5094878;28;20027;-83
2023/12/14 04:23:26;;;;;;;0.20;0.20;;;;;;;8.23;70.00;101497.59;5094954;28;20024;-82
2023/12/14 04:25:53;;;;;;;0.20;0.20;;;;;;;8.26;70.49;101489.66;5086816;28;20032;-84
2023/12/14 04:28:19;;;;;;;0.30;0.30;;;;;;;8.23;69.82;101498.44;5089175;28;20081;-83
2023/12/14 04:30:45;;;;;;;0.65;0.65;;;;;;;8.20;69.20;101497.56;5090512;28;20475;-83
2023/12/14 04:33:11;;;;;;;0.15;0.15;;;;;;;8.20;69.28;101508.13;5086016;28;20034;-83
2023/12/14 04:35:37;;;;;;;0.20;0.20;;;;;;;8.16;69.16;101517.84;5089733;28;20379;-82
2023/12/14 04:38:04;;;;;;;0.20;0.20;;;;;;;8.21;69.85;101520.47;5084183;28;20029;-85
2023/12/14 04:40:30;;;;;;;0.20;0.20;;;;;;;8.13;69.39;101528.38;5085168;28;20024;-83
2023/12/14 04:42:56;;;;;;;0.45;0.45;;;;;;;8.17;69.03;101535.41;5083463;28;20043;-84
2023/12/14 04:45:22;;;;;;;0.20;0.20;;;;;;;8.16;69.05;101540.69;5092551;28;20031;-83
2023/12/14 04:47:49;;;;;;;0.20;0.20;;;;;;;8.22;69.18;101548.63;5092708;28;20441;-83
2023/12/14 04:50:15;;;;;;;0.20;0.20;;;;;;;8.20;68.82;101560.94;5092828;28;20028;-83
2023/12/14 04:52:42;;;;;;;0.85;0.85;;;;;;;8.25;68.88;101551.28;5096358;28;20024;-84
2023/12/14 04:55:09;;;;;;;0.65;0.65;;;;;;;8.27;69.03;101560.06;5091590;28;20055;-84
2023/12/14 04:57:36;;;;;;;0.13;0.13;;;;;;;8.24;68.57;101573.28;5091678;28;20036;-84
2023/12/14 05:00:03;;;;;;;0.20;0.20;;;;;;;8.26;68.38;101576.78;5084460;28;20025;-84
2023/12/14 05:02:31;;;;;;;0.10;0.10;;;;;;;8.24;68.42;101586.47;5087582;28;20048;-83
2023/12/14 05:04:58;;;;;;;0.30;0.30;;;;;;;8.25;68.70;101597.03;5088869;28;20447;-83
2023/12/14 05:07:24;;;;;;;0.47;0.47;;;;;;;8.18;67.81;101591.75;5086428;28;20566;-84
2023/12/14 05:09:50;;;;;;;0.20;0.20;;;;;;;8.20;68.01;101608.44;5091185;28;20509;-84
2023/12/14 05:12:16;;;;;;;0.20;0.20;;;;;;;8.23;68.36;101611.09;5087126;28;20028;-84
2023/12/14 05:14:42;;;;;;;0.20;0.20;;;;;;;8.16;68.00;101606.69;5094813;28;20110;-84
2023/12/14 05:17:08;;;;;;;0.32;0.32;;;;;;;8.05;67.88;101611.94;5089648;28;20039;-84
2023/12/14 05:19:34;;;;;;;0.20;0.20;;;;;;;8.05;67.83;101619.84;5089318;28;20020;-84
2023/12/14 05:22:00;;;;;;;0.10;0.10;;;;;;;8.03;67.94;101635.69;5091157;28;20383;-83
2023/12/14 05:24:27;;;;;;;0.20;0.20;;;;;;;8.03;67.81;101633.03;5103787;28;20024;-84
2023/12/14 05:26:53;;;;;;;0.25;0.25;;;;;;;7.90;66.97;101642.69;5108249;28;20019;-85
2023/12/14 05:29:21;;;;;;;0.20;0.20;;;;;;;8.02;67.93;101641.84;5094500;28;20039;-84
2023/12/14 05:31:47;;;;;;;0.63;0.63;;;;;;;8.05;68.22;101640.97;5091226;28;20027;-84
2023/12/14 05:34:15;;;;;;;0.20;0.20;;;;;;;7.95;66.96;101642.72;5081572;28;20116;-84
2023/12/14 05:36:42;;;;;;;0.35;0.35;;;;;;;7.78;66.83;101643.50;5087697;28;20039;-83
2023/12/14 05:39:08;;;;;;;0.20;0.20;;;;;;;7.85;66.93;101639.16;5092572;28;20397;-83
2023/12/14 05:41:39;;;;;;;0.17;0.17;;;;;;;7.90;67.80;101636.50;5081160;28;20044;-83
2023/12/14 05:44:05;;;;;;;0.10;0.10;;;;;;;7.85;66.75;101643.53;5095003;28;20028;-86
2023/12/14 05:46:31;;;;;;;0.20;0.20;;;;;;;7.90;67.43;101657.63;5099009;28;20050;-84
2023/12/14 05:48:57;;;;;;;2.55;2.38;;;;;;;7.83;65.88;101661.13;5100099;28;20046;-85
2023/12/14 05:51:28;;;;;;;0.20;0.20;;;;;;;7.83;65.84;101656.72;5092535;28;20058;-85
2023/12/14 05:53:55;;;;;;;0.95;0.90;;;;;;;7.90;66.47;101662.91;5095268;28;20034;-85
2023/12/14 05:56:21;;;;;;;1.15;1.15;;;;;;;7.92;67.13;101677.88;5087062;28;20475;-83
2023/12/14 05:58:47;;;;;;;0.52;0.52;;;;;;;7.87;66.41;101671.69;5093561;28;20050;-84
2023/12/14 06:01:13;;;;;;;0.68;0.68;;;;;;;7.86;66.79;101676.97;5088876;28;20442;-84
2023/12/14 06:03:39;;;;;;;0.20;0.20;;;;;;;7.88;66.73;101681.38;5091784;28;20066;-85
2023/12/14 06:06:05;;;;;;;0.20;0.20;;;;;;;7.93;66.89;101678.75;5090879;28;20039;-84
2023/12/14 06:08:31;;;;;;;0.20;0.20;;;;;;;7.87;66.77;101684.00;5085924;28;20051;-84
2023/12/14 06:10:57;;;;;;;0.20;0.20;;;;;;;7.84;66.26;101687.50;5090705;28;20033;-83
2023/12/14 06:13:24;;;;;;;0.20;0.20;;;;;;;7.84;66.95;101684.88;5092893;28;20367;-84
2023/12/14 06:15:51;;;;;;;0.10;0.10;;;;;;;7.91;66.67;101696.31;5094153;28;20036;-84
2023/12/14 06:18:17;;;;;;;0.10;0.10;;;;;;;7.92;67.43;101703.38;5093546;28;20383;-84
2023/12/14 06:20:43;;;;;;;0.63;0.63;;;;;;;7.91;66.86;101702.50;5089160;28;20035;-83
2023/12/14 06:23:10;;;;;;;0.10;0.10;;;;;;;7.94;67.19;101709.56;5095495;28;20024;-83
2023/12/14 06:25:36;;;;;;;0.20;0.20;;;;;;;7.97;67.24;101714.81;5094877;28;20062;-84
2023/12/14 06:28:03;;;;;;;0.20;0.20;;;;;;;7.97;66.41;101716.59;5091036;28;20032;-83
2023/12/14 06:30:29;;;;;;;0.20;0.20;;;;;;;8.00;66.91;101720.13;5091807;28;20027;-83
2023/12/14 06:32:55;;;;;;;0.20;0.20;;;;;;;7.96;66.40;101736.81;5088979;28;20552;-85
2023/12/14 06:35:21;;;;;;;1.65;0.50;;;;;;;8.01;67.17;101743.03;5090046;28;20040;-83
2023/12/14 06:37:48;;;;;;;0.20;0.20;;;;;;;7.97;67.45;101746.50;5082993;28;20063;-83
2023/12/14 06:40:14;;;;;;;0.85;0.80;;;;;;;7.93;66.87;101758.78;5087484;28;20122;-83
2023/12/14 06:42:42;;;;;;;0.10;0.10;;;;;;;7.94;67.18;101762.34;5090361;28;20070;-83
2023/12/14 06:45:10;;;;;;;0.30;0.30;;;;;;;7.87;66.90;101771.06;5088855;28;20036;-84
2023/12/14 06:47:36;;;;;;;0.20;0.20;;;;;;;7.95;67.46;101772.03;5086890;28;20051;-84
2023/12/14 06:50:02;;;;;;;0.20;0.20;;;;;;;7.95;67.17;101777.28;5090782;28;20036;-84
2023/12/14 06:52:28;;;;;;;0.30;0.30;;;;;;;7.85;66.10;101779.00;5092624;28;20032;-82
2023/12/14 06:54:55;;;;;;;0.20;0.20;;;;;;;7.90;66.64;101784.28;5093418;28;20049;-83
2023/12/14 06:57:21;;;;;;;0.63;0.63;;;;;;;7.86;66.51;101788.69;5088446;28;20037;-83
2023/12/14 06:59:47;;;;;;;0.20;0.20;;;;;;;7.86;66.43;101787.78;5094056;28;20032;-84
2023/12/14 07:02:13;;;;;;;0.20;0.20;;;;;;;7.82;66.57;101792.16;5087170;28;20024;-82
2023/12/14 07:04:39;;;;;;;0.20;0.20;;;;;;;7.82;66.59;101786.00;5094170;28;20458;-87
2023/12/14 07:07:05;;;;;;;2.47;1.27;;;;;;;7.82;66.09;101804.47;5096975;28;20032;-88
2023/12/14 07:09:31;;;;;;;4.38;1.00;;;;;;;7.81;66.01;101792.16;5092294;28;20043;-86
2023/12/14 07:11:58;;;;;;;0.20;0.20;;;;;;;7.73;65.99;101798.25;5099424;28;20518;-85
2023/12/14 07:14:24;;;;;;;0.10;0.10;;;;;;;7.65;65.65;101805.25;5097991;28;20032;-86
2023/12/14 07:16:50;;;;;;;0.20;0.20;;;;;;;7.75;65.80;101804.44;5102302;28;20047;-86
2023/12/14 07:19:17;;;;;;;0.20;0.20;;;;;;;7.78;66.43;101807.06;5101083;28;20034;-86
2023/12/14 07:21:43;;;;;;;0.20;0.20;;;;;;;7.72;66.22;101807.03;5103446;28;20028;-86
2023/12/14 07:24:09;;;;;;;1.48;1.38;;;;;;;7.80;66.13;101807.09;5104018;28;20028;-86
2023/12/14 07:26:35;;;;;;;0.60;0.60;;;;;;;7.84;66.28;101810.63;5102859;28;20046;-86
2023/12/14 07:29:01;;;;;;;0.10;0.10;;;;;;;7.90;66.28;101815.94;5105268;28;20047;-85
2023/12/14 07:31:28;;;;;;;0.25;0.25;;;;;;;7.94;66.40;101823.91;5101994;28;20574;-85
2023/12/14 07:33:55;;;;;;;0.30;0.30;;;;;;;7.98;66.58;101827.44;5096256;28;20058;-85
2023/12/14 07:36:22;;;;;;;0.20;0.20;;;;;;;8.00;65.98;101833.63;5095203;28;20099;-85
2023/12/14 07:38:48;;;;;;;0.20;0.20;;;;;;;8.01;66.71;101839.78;5098367;28;20498;-85
2023/12/14 07:41:15;;;;;;;0.20;0.20;;;;;;;8.03;66.24;101844.19;5099077;28;20024;-86
2023/12/14 07:43:41;;;;;;;0.20;0.20;;;;;;;8.04;65.91;101845.09;5094888;28;20016;-85
2023/12/14 07:46:07;;;;;;;0.13;0.13;;;;;;;8.03;66.02;101841.53;5093532;28;20526;-85
2023/12/14 07:48:33;;;;;;;0.20;0.20;;;;;;;8.04;66.40;101851.22;5095286;28;20120;-85
2023/12/14 07:50:59;;;;;;;0.20;0.20;;;;;;;8.03;65.45;101856.50;5095801;28;20032;-85
2023/12/14 07:53:26;;;;;;;0.20;0.20;;;;;;;8.08;66.40;101855.66;5098995;28;20038;-85
2023/12/14 07:55:52;;;;;;;0.20;0.20;;;;;;;8.12;65.99;101853.06;5103173;28;20543;-85
2023/12/14 07:58:18;;;;;;;0.20;0.20;;;;;;;8.13;66.01;101854.81;5101902;28;20031;-85
2023/12/14 08:00:44;;;;;;;0.20;0.20;;;;;;;8.09;66.15;101852.16;5095261;28;20520;-85
2023/12/14 08:03:11;;;;;;;0.20;0.20;;;;;;;8.12;66.16;101855.69;5095763;28;20047;-87
2023/12/14 08:05:37;;;;;;;0.10;0.10;;;;;;;8.07;66.27;101848.63;5096992;28;20043;-86
2023/12/14 08:08:03;;;;;;;0.40;0.40;;;;;;;8.01;65.85;101851.22;5094808;28;20056;-86
2023/12/14 08:10:29;;;;;;;0.20;0.20;;;;;;;7.96;66.23;101862.63;5090014;28;20032;-86
2023/12/14 08:12:55;;;;;;;0.20;0.20;;;;;;;7.90;66.13;101863.44;5096420;28;20043;-86
2023/12/14 08:15:21;;;;;;;0.38;0.38;;;;;;;7.83;66.32;101872.19;5086775;28;20035;-85
2023/12/14 08:17:47;;;;;;;0.20;0.20;;;;;;;7.79;66.86;101871.28;5089209;28;20028;-85
2023/12/14 08:20:14;;;;;;;0.10;0.10;;;;;;;7.73;67.08;101864.19;5089474;28;20074;-85
2023/12/14 08:22:44;;;;;;;0.20;0.20;;;;;;;7.71;67.20;101876.50;5094066;28;20032;-85
2023/12/14 08:25:13;;;;;;;0.20;0.20;;;;;;;7.66;67.18;101886.09;5092434;28;20025;-84
2023/12/14 08:27:40;;;;;;;0.20;0.20;;;;;;;7.61;67.21;101893.09;5083417;28;20035;-85
2023/12/14 08:30:07;;;;;;;0.17;0.17;;;;;;;7.58;66.70;101895.72;5090125;28;20024;-84
2023/12/14 08:32:33;;;;;;;0.20;0.20;;;;;;;7.54;67.29;101899.19;5095130;28;20035;-85
2023/12/14 08:34:59;;;;;;;0.20;0.20;;;;;;;7.51;67.50;101913.22;5096859;28;20028;-86
2023/12/14 08:37:25;;;;;;;0.20;0.20;;;;;;;7.50;67.54;101915.84;5087296;28;20048;-86
2023/12/14 08:39:52;;;;;;;0.10;0.10;;;;;;;7.50;67.08;101926.41;5098972;28;20025;-85
2023/12/14 08:42:18;;;;;;;0.50;0.50;;;;;;;7.51;67.63;101933.44;5091994;28;20045;-85
2023/12/14 08:44:44;;;;;;;0.28;0.28;;;;;;;7.54;67.80;101933.47;5092331;28;20024;-85
2023/12/14 08:47:10;;;;;;;0.82;0.82;;;;;;;7.57;67.28;101938.78;5097754;28;20039;-84
2023/12/14 08:49:36;;;;;;;0.40;0.40;;;;;;;7.64;67.87;101951.19;5092160;28;20028;-84
2023/12/14 08:52:04;;;;;;;0.20;0.20;;;;;;;7.70;67.33;101956.50;5097941;28;20032;-84
2023/12/14 08:54:30;;;;;;;0.30;0.30;;;;;;;7.74;67.27;101960.94;5094725;28;20092;-84
2023/12/14 08:56:56;;;;;;;0.20;0.20;;;;;;;7.79;67.57;101961.00;5089421;28;20028;-84
2023/12/14 08:59:22;;;;;;;0.20;0.20;;;;;;;7.85;67.40;101970.69;5102480;28;20071;-84
2023/12/14 09:01:48;;;;;;;0.25;0.25;;;;;;;7.86;66.62;101967.19;5098741;28;20024;-84
2023/12/14 09:04:14;;;;;;;0.20;0.20;;;;;;;7.94;66.43;101979.59;5104087;28;20036;-85
2023/12/14 09:06:44;;;;;;;0.15;0.15;;;;;;;8.05;67.06;101977.06;5092262;28;20417;-85
2023/12/14 09:09:11;;;;;;;0.20;0.20;;;;;;;8.12;65.86;101977.13;5090237;28;20077;-85
2023/12/14 09:11:37;;;;;;;0.17;0.17;;;;;;;8.23;67.00;101988.66;5087450;28;20410;-86
2023/12/14 09:14:04;;;;;;;1.20;1.20;;;;;;;8.26;65.92;101989.56;5093510;28;20087;-84
2023/12/14 09:16:30;;;;;;;0.20;0.20;;;;;;;8.31;65.66;101989.59;5091999;28;20027;-84
2023/12/14 09:18:56;;;;;;;0.20;0.20;;;;;;;8.39;66.57;101989.66;5092785;28;20035;-84
2023/12/14 09:21:22;;;;;;;0.13;0.13;;;;;;;8.40;65.73;101997.59;5098156;28;20020;-85
2023/12/14 09:23:48;;;;;;;0.20;0.20;;;;;;;8.41;64.99;101999.34;5092552;28;20039;-85
2023/12/14 09:26:14;;;;;;;0.30;0.30;;;;;;;8.48;64.93;101994.16;5095117;28;20039;-85
2023/12/14 09:28:42;;;;;;;0.17;0.17;;;;;;;8.52;64.45;101995.94;5086248;28;20111;-85
2023/12/14 09:31:08;;;;;;;0.20;0.20;;;;;;;8.55;64.41;101990.69;5096107;28;20054;-85
2023/12/14 09:33:34;;;;;;;0.10;0.10;;;;;;;8.60;64.96;101995.97;5094276;28;20069;-85
2023/12/14 09:36:00;;;;;;;0.13;0.13;;;;;;;8.63;64.70;101996.88;5089672;28;20529;-85
2023/12/14 09:38:27;;;;;;;0.20;0.20;;;;;;;8.67;65.13;102001.34;5091793;28;20090;-84
2023/12/14 09:40:53;;;;;;;0.30;0.30;;;;;;;8.70;65.86;102004.00;5088955;28;20056;-85
2023/12/14 09:43:20;;;;;;;0.40;0.40;;;;;;;8.65;63.87;102013.66;5084329;28;20076;-85
2023/12/14 09:45:47;;;;;;;0.85;0.57;;;;;;;8.66;64.23;102019.81;5089357;28;20054;-85
2023/12/14 09:48:15;;;;;;;0.20;0.20;;;;;;;8.67;64.74;102025.13;5089366;28;20032;-85
2023/12/14 09:50:42;;;;;;;0.10;0.10;;;;;;;8.68;64.31;102034.78;5092446;28;20031;-85
2023/12/14 09:53:08;;;;;;;0.20;0.20;;;;;;;8.70;64.41;102037.47;5095998;28;20083;-86
2023/12/14 09:55:34;;;;;;;0.30;0.30;;;;;;;8.69;64.08;102041.84;5088859;28;20460;-84
2023/12/14 09:58:02;;;;;;;0.22;0.22;;;;;;;8.69;63.63;102035.69;5090365;28;20025;-81
2023/12/14 10:00:38;;;;;;;0.20;0.20;;;;;;;8.74;64.04;102033.97;5085285;28;20046;-83
2023/12/14 10:05:57;;;;;;;0.20;0.20;;;;;;;8.70;64.33;102040.97;5102736;27;20446;-79
2023/12/14 10:08:24;;;;;;;0.20;0.20;;;;;;;8.70;63.89;102043.63;5104047;28;20028;-80
2023/12/14 10:10:53;;;;;;;0.10;0.10;;;;;;;8.70;64.08;102048.91;5105124;28;20023;-81
2023/12/14 10:13:28;;;;;;;0.10;0.10;;;;;;;8.70;64.31;102051.53;5106111;28;20034;-81
2023/12/14 10:15:54;;;;;;;0.10;0.10;;;;;;;8.71;63.66;102050.69;5100794;28;20020;-81
2023/12/14 10:18:24;;;;;;;0.20;0.20;;;;;;;8.78;64.07;102056.00;5096244;28;20027;-83
2023/12/14 10:20:51;;;;;;;0.25;0.25;;;;;;;8.80;64.38;102054.25;5097047;28;20569;-81
2023/12/14 10:23:18;;;;;;;0.20;0.20;;;;;;;8.82;63.90;102056.06;5101249;28;20106;-79
2023/12/14 10:25:45;;;;;;;0.10;0.10;;;;;;;8.88;64.17;102068.41;5102628;28;20026;-82
2023/12/14 10:28:13;;;;;;;0.10;0.10;;;;;;;8.92;64.18;102067.53;5098435;28;20040;-82
2023/12/14 10:30:40;;;;;;;0.10;0.10;;;;;;;8.94;63.32;102068.44;5097095;28;20029;-82
2023/12/14 10:33:07;;;;;;;0.15;0.15;;;;;;;8.98;63.25;102067.59;5101288;28;20028;-82
2023/12/14 10:35:33;;;;;;;0.10;0.10;;;;;;;9.06;63.93;102068.53;5103541;28;20020;-81
2023/12/14 10:38:06;;;;;;;0.13;0.13;;;;;;;9.17;64.12;102065.03;5095755;28;20118;-82
2023/12/14 10:40:34;;;;;;;0.20;0.20;;;;;;;9.15;62.32;102067.69;5096319;28;20419;-81
2023/12/14 10:43:01;;;;;;;0.10;0.10;;;;;;;9.21;62.98;102082.72;5106572;28;20107;-82
2023/12/14 10:45:32;;;;;;;0.28;0.28;;;;;;;9.26;63.70;102066.84;5102141;28;20087;-80
2023/12/14 10:48:00;;;;;;;0.20;0.20;;;;;;;9.26;63.34;102067.75;5103515;28;20033;-82
2023/12/14 10:50:29;;;;;;;0.20;0.20;;;;;;;9.32;62.64;102078.38;5102860;28;20032;-80
2023/12/14 10:52:57;;;;;;;0.10;0.10;;;;;;;9.38;62.37;102081.03;5100216;28;20028;-80
2023/12/14 10:55:43;;;;;;;0.20;0.20;;;;;;;9.52;62.77;102089.03;5103523;28;20104;-79
2023/12/14 10:58:11;;;;;;;1.30;1.13;;;;;;;9.58;61.54;102097.88;5098271;28;20107;-81
2023/12/14 11:00:38;;;;;;;0.20;0.20;;;;;;;9.64;62.64;102093.47;5094303;28;20028;-78
2023/12/14 11:03:05;;;;;;;0.10;0.10;;;;;;;9.69;60.68;102096.16;5089950;28;20107;-82
2023/12/14 11:05:34;;;;;;;0.20;0.20;;;;;;;9.77;60.21;102089.13;5098725;28;20024;-79
2023/12/14 11:08:08;;;;;;;0.63;0.63;;;;;;;9.83;59.99;102085.59;5095301;28;20099;-80
2023/12/14 11:10:44;;;;;;;0.20;0.20;;;;;;;9.87;59.65;102101.53;5101613;28;20027;-81
2023/12/14 11:13:13;;;;;;;0.20;0.20;;;;;;;9.83;59.59;102098.84;5097053;28;20524;-80
2023/12/14 11:15:45;;;;;;;0.10;0.10;;;;;;;9.78;59.03;102098.84;5099378;28;20024;-80
2023/12/14 11:26:05;;;;;;;0.20;0.20;;;;;;;9.72;61.50;102093.53;5082138;27;1905403;-80
2023/12/14 11:33:35;;;;;;;0.13;0.13;;;;;;;9.80;61.86;102109.44;5037761;28;20049;-87
2023/12/14 11:36:03;;;;;;;0.10;0.10;;;;;;;9.80;59.11;102106.78;5056931;28;20037;-84
2023/12/14 11:38:30;;;;;;;0.20;0.20;;;;;;;9.84;59.86;102112.13;5050874;28;20036;-84
2023/12/14 11:40:57;;;;;;;0.10;0.10;;;;;;;9.85;59.56;102112.97;5051567;28;20044;-84
2023/12/14 11:43:26;;;;;;;0.10;0.10;;;;;;;9.90;61.50;102111.22;5049964;28;20025;-84
2023/12/14 11:45:53;;;;;;;0.10;0.10;;;;;;;9.87;60.71;102116.53;5053112;28;20113;-83
2023/12/14 11:48:20;;;;;;;0.30;0.30;;;;;;;9.87;62.17;102116.53;5050158;28;20044;-83
2023/12/14 11:50:47;;;;;;;0.30;0.30;;;;;;;9.79;60.13;102123.53;5052713;28;20104;-82
2023/12/14 11:53:14;;;;;;;0.38;0.38;;;;;;;9.77;60.54;102120.91;5056995;28;20056;-84
2023/12/14 11:55:42;;;;;;;0.20;0.20;;;;;;;9.78;61.26;102121.78;5054218;28;20034;-83
2023/12/14 11:58:11;;;;;;;0.10;0.10;;;;;;;9.77;61.01;102125.28;5062956;28;20030;-83
2023/12/14 12:00:39;;;;;;;0.30;0.25;;;;;;;9.75;61.43;102119.13;5050276;28;20022;-85
2023/12/14 12:03:15;;;;;;;0.10;0.10;;;;;;;9.76;60.86;102129.72;5043317;28;20029;-83
2023/12/14 12:08:20;;;;;;;0.20;0.20;;;;;;;9.61;61.11;102133.19;5076071;27;1279456;-84
2023/12/14 12:10:48;;;;;;;0.10;0.10;;;;;;;9.70;61.56;102141.16;5100973;28;20035;-83
2023/12/14 12:13:17;;;;;;;0.30;0.30;;;;;;;9.72;60.61;102135.88;5109877;28;20020;-84
2023/12/14 12:15:44;;;;;;;0.10;0.10;;;;;;;9.69;60.19;102142.06;5101081;28;20027;-84
2023/12/14 12:18:12;;;;;;;0.20;0.20;;;;;;;9.64;59.44;102135.81;5100138;28;20024;-84
2023/12/14 12:20:38;;;;;;;0.10;0.10;;;;;;;9.57;59.01;102142.00;5103744;28;20095;-84
2023/12/14 12:23:05;;;;;;;0.20;0.20;;;;;;;9.60;59.58;102138.47;5103434;28;20028;-84
2023/12/14 12:25:33;;;;;;;0.55;0.55;;;;;;;9.64;59.92;102135.81;5102479;28;20463;-84
2023/12/14 12:28:01;;;;;;;0.45;0.45;;;;;;;9.70;61.56;102138.50;5093470;28;20033;-84
2023/12/14 12:30:27;;;;;;;0.10;0.10;;;;;;;9.67;61.19;102135.84;5098037;28;20024;-84
2023/12/14 12:32:55;;;;;;;0.10;0.10;;;;;;;9.65;60.58;102136.72;5094954;28;20538;-83
2023/12/14 12:35:22;;;;;;;0.35;0.35;;;;;;;9.61;60.44;102138.47;5101343;28;20055;-83
2023/12/14 12:37:53;;;;;;;0.10;0.10;;;;;;;9.63;60.67;102128.78;5092789;28;20119;-83
2023/12/14 12:40:20;;;;;;;0.20;0.20;;;;;;;9.59;59.98;102134.91;5093224;28;20036;-84
2023/12/14 12:42:48;;;;;;;0.10;0.10;;;;;;;9.62;59.77;102134.94;5096911;28;20028;-82
2023/12/14 12:45:17;;;;;;;0.20;0.20;;;;;;;9.62;60.39;102131.41;5097463;28;20044;-83
2023/12/14 12:47:43;;;;;;;0.75;0.75;;;;;;;9.66;60.89;102139.38;5091443;28;20040;-83
2023/12/14 12:50:10;;;;;;;0.10;0.10;;;;;;;9.62;60.13;102142.91;5093042;28;20028;-84
2023/12/14 12:52:37;;;;;;;0.20;0.20;;;;;;;9.68;60.53;102142.03;5094540;28;20042;-84
2023/12/14 12:55:05;;;;;;;0.20;0.20;;;;;;;9.70;61.01;102143.78;5094124;28;20021;-83
2023/12/14 12:57:31;;;;;;;0.20;0.20;;;;;;;9.69;61.38;102144.69;5100677;28;20024;-84
2023/12/14 12:59:57;;;;;;;0.10;0.10;;;;;;;9.69;60.92;102136.75;5092791;28;20032;-83
2023/12/14 13:02:23;;;;;;;1.00;0.95;;;;;;;9.74;61.25;102130.59;5091501;28;20024;-83
2023/12/14 13:04:50;;;;;;;0.17;0.17;;;;;;;9.70;61.12;102146.44;5100995;28;20049;-84
2023/12/14 13:07:18;;;;;;;0.40;0.40;;;;;;;9.70;61.09;102153.50;5095977;28;20402;-83
2023/12/14 13:09:44;;;;;;;0.15;0.15;;;;;;;9.70;60.99;102156.16;5101306;28;20020;-82
2023/12/14 13:12:10;;;;;;;0.20;0.17;;;;;;;9.70;61.48;102159.66;5094885;28;20075;-83